Flight Track Log - Related Links

Times and Time Zones

All times are in EDT time to prevent confusion due to time zone crossing. See the N4612D flight status page for this flight to view local times or setup timezone preferences in your user account.

Time Position Orientation Groundspeed Altitude Reporting Facility
EDT Latitude Longitude Course Direction KTS MPH feet Rate Location/Type
Wed 04:06:11 PM 44.2069 -123.1850 11° North 110 127 3,400  Level Seattle Center
Wed 04:07:00 PM 44.3256 -123.1542 11° North  Level FlightAware Approximate
Wed 04:07:12 PM 44.2344 -123.1778 11° North 104 120 3,500  Level Seattle Center
Wed 04:08:00 PM 44.3602 -123.1449 11° North  Level FlightAware Approximate
Wed 04:08:13 PM 44.2628 -123.1708 10° North 103 119 3,600  Level Seattle Center
Wed 04:09:00 PM 44.3949 -123.1356 11° North  Level FlightAware Approximate
Wed 04:09:14 PM 44.2928 -123.1636 10° North 110 127 3,600  Level Seattle Center
Wed 04:10:00 PM 44.4295 -123.1262 11° North  Level FlightAware Approximate
Wed 04:10:15 PM 44.3289 -123.1561 North 111 128 3,700  Level Seattle Center
Wed 04:11:00 PM 44.4642 -123.1169 11° North  Level FlightAware Approximate
Wed 04:11:16 PM 44.3606 -123.1489 North 114 131 3,500  Level Seattle Center
Wed 04:12:17 PM 44.3939 -123.1431 North 121 139 3,300 -49 Descending Seattle Center
Wed 04:13:18 PM 44.4239 -123.1347 11° North 112 129 3,400 98 Climbing Seattle Center
Wed 04:14:20 PM 44.4536 -123.1289 North 111 128 3,500 146 Climbing Seattle Center
Wed 04:15:21 PM 44.4844 -123.1253 North 111 128 3,700 49 Climbing Seattle Center
Wed 04:16:22 PM 44.5156 -123.1194 North 111 128 3,600 -49 Descending Seattle Center
Wed 04:17:23 PM 44.5467 -123.1114 10° North 112 129 3,600 -49 Level Seattle Center
Wed 04:18:24 PM 44.5786 -123.1058 North 113 130 3,500  Descending Seattle Center
Wed 04:19:25 PM 44.6117 -123.0981 10° North 113 130 3,600  Climbing Seattle Center
Wed 04:20:26 PM 44.6414 -123.0894 12° North 112 129 3,500 -49 Descending Seattle Center
Wed 04:21:27 PM 44.6728 -123.0811 11° North 112 129 3,500  Level Seattle Center
Wed 04:22:29 PM 44.7031 -123.0769 North 112 129 3,500  Level Seattle Center
Wed 04:23:30 PM 44.7331 -123.0661 14° North 112 129 3,500  Level Seattle Center
Wed 04:24:31 PM 44.7619 -123.0531 18° North 112 129 3,500  Level Seattle Center
Wed 04:25:32 PM 44.7911 -123.0381 20° North 111 128 3,500 -98 Level Seattle Center
Wed 04:26:33 PM 44.8247 -123.0228 18° North 109 125 3,300 -197 Descending Seattle Center

Login

Don't have an account? Register now (free) for customized features, flight alerts, and more!